Time;durP1;ratioP1;P1;durP2;ratioP2;P2;SDS_P1;SDS_P2;PMS_P1;PMS_P2;Temp;Humidity;BMP_temperature;BMP_pressure;BME280_temperature;BME280_humidity;BME280_pressure;Samples;Min_cycle;Max_cycle;Signal;HPM_P1;HPM_P2
2024/01/18 00:00:55;;;;;;;4.32;1.23;;;;;;;;;;4832543;29;20057;-74
2024/01/18 00:03:26;;;;;;;3.33;0.93;;;;;;;;;;4832565;29;20056;-74
2024/01/18 00:05:57;;;;;;;2.33;0.90;;;;;;;;;;4832421;29;20060;-76
2024/01/18 00:08:29;;;;;;;3.05;1.00;;;;;;;;;;4832310;29;20563;-78
2024/01/18 00:11:03;;;;;;;3.25;0.95;;;;;;;;;;4832444;29;20053;-82
2024/01/18 00:13:33;;;;;;;5.10;1.10;;;;;;;;;;4830922;29;20780;-74
2024/01/18 00:16:04;;;;;;;2.65;0.88;;;;;;;;;;4831876;29;20057;-76
2024/01/18 00:18:35;;;;;;;1.98;0.82;;;;;;;;;;4831565;29;20068;-76
2024/01/18 00:21:06;;;;;;;5.45;1.65;;;;;;;;;;4832777;29;20045;-74
2024/01/18 00:23:37;;;;;;;5.00;1.52;;;;;;;;;;4832333;29;20057;-74
2024/01/18 00:26:09;;;;;;;6.07;0.98;;;;;;;;;;4832002;29;20057;-76
2024/01/18 00:28:40;;;;;;;5.90;1.00;;;;;;;;;;4830155;29;20057;-75
2024/01/18 00:31:10;;;;;;;4.53;1.08;;;;;;;;;;4831584;29;20536;-75
2024/01/18 00:33:40;;;;;;;4.03;1.00;;;;;;;;;;4831133;29;20046;-75
2024/01/18 00:36:11;;;;;;;7.22;1.35;;;;;;;;;;4831071;29;20045;-74
2024/01/18 00:38:43;;;;;;;2.45;1.08;;;;;;;;;;4831118;29;20038;-73
2024/01/18 00:41:14;;;;;;;2.70;0.77;;;;;;;;;;4814713;29;20053;-78
2024/01/18 00:43:44;;;;;;;5.50;1.35;;;;;;;;;;4830656;29;20623;-74
2024/01/18 00:46:18;;;;;;;2.35;0.75;;;;;;;;;;4829113;29;20520;-74
2024/01/18 00:48:50;;;;;;;6.50;1.30;;;;;;;;;;4830891;29;20455;-76
2024/01/18 00:51:21;;;;;;;2.05;0.98;;;;;;;;;;4831108;29;20050;-74
2024/01/18 00:53:52;;;;;;;5.25;1.00;;;;;;;;;;4828746;29;20429;-75
2024/01/18 00:56:22;;;;;;;7.88;1.10;;;;;;;;;;4831090;29;20034;-74
2024/01/18 00:58:53;;;;;;;4.38;1.00;;;;;;;;;;4815766;29;20073;-74
2024/01/18 01:01:23;;;;;;;1.30;0.93;;;;;;;;;;4831829;29;20054;-73
2024/01/18 01:03:54;;;;;;;1.23;0.93;;;;;;;;;;4831100;29;20054;-74
2024/01/18 01:06:24;;;;;;;2.00;1.00;;;;;;;;;;4831532;29;20054;-75
2024/01/18 01:08:56;;;;;;;4.65;1.05;;;;;;;;;;4815804;29;20526;-73
2024/01/18 01:11:27;;;;;;;5.13;1.13;;;;;;;;;;4831196;29;20054;-74
2024/01/18 01:13:57;;;;;;;6.47;1.45;;;;;;;;;;4831363;29;20053;-73
2024/01/18 01:16:27;;;;;;;3.50;1.00;;;;;;;;;;4830992;29;20065;-76
2024/01/18 01:18:57;;;;;;;2.67;0.85;;;;;;;;;;4831414;29;20041;-74
2024/01/18 01:21:31;;;;;;;4.28;1.08;;;;;;;;;;4830632;29;20057;-75
2024/01/18 01:24:02;;;;;;;4.22;1.05;;;;;;;;;;4828355;29;20066;-75
2024/01/18 01:26:33;;;;;;;2.85;1.23;;;;;;;;;;4829416;29;20444;-75
2024/01/18 01:29:04;;;;;;;1.52;0.88;;;;;;;;;;4831477;29;20544;-75
2024/01/18 01:31:35;;;;;;;4.13;1.10;;;;;;;;;;4830922;29;20053;-76
2024/01/18 01:34:06;;;;;;;4.38;1.30;;;;;;;;;;4831147;29;20053;-75
2024/01/18 01:36:37;;;;;;;4.22;1.10;;;;;;;;;;4830777;29;20054;-76
2024/01/18 01:39:07;;;;;;;5.80;1.08;;;;;;;;;;4830264;29;20050;-76
2024/01/18 01:41:38;;;;;;;3.40;1.10;;;;;;;;;;4829739;29;20522;-76
2024/01/18 01:44:08;;;;;;;8.38;1.27;;;;;;;;;;4830894;29;20058;-75
2024/01/18 01:46:38;;;;;;;6.40;1.60;;;;;;;;;;4814978;29;20061;-75
2024/01/18 01:49:09;;;;;;;3.22;1.08;;;;;;;;;;4834705;29;20049;-76
2024/01/18 01:51:49;;;;;;;2.88;1.23;;;;;;;;;;4834094;29;20050;-76
2024/01/18 01:54:21;;;;;;;4.57;1.13;;;;;;;;;;4833826;29;20420;-75
2024/01/18 01:56:54;;;;;;;5.20;1.17;;;;;;;;;;4833837;29;20426;-75
2024/01/18 01:59:25;;;;;;;4.85;1.00;;;;;;;;;;4834725;29;20505;-76
2024/01/18 02:01:55;;;;;;;4.45;1.20;;;;;;;;;;4834627;29;20049;-73
2024/01/18 02:04:27;;;;;;;3.33;1.20;;;;;;;;;;4834449;29;20045;-75
2024/01/18 02:06:58;;;;;;;2.40;1.05;;;;;;;;;;4834315;29;20410;-76
2024/01/18 02:09:29;;;;;;;9.02;1.40;;;;;;;;;;4834971;29;20417;-75
2024/01/18 02:12:02;;;;;;;5.35;1.10;;;;;;;;;;4835373;29;20433;-75
2024/01/18 02:14:35;;;;;;;5.25;1.05;;;;;;;;;;4833928;29;20429;-75
2024/01/18 02:17:06;;;;;;;4.00;1.02;;;;;;;;;;4834616;29;20565;-75
2024/01/18 02:19:36;;;;;;;3.20;0.88;;;;;;;;;;4834347;29;20085;-76
2024/01/18 02:22:08;;;;;;;4.00;0.90;;;;;;;;;;4833751;29;20073;-75
2024/01/18 02:24:46;;;;;;;5.18;1.20;;;;;;;;;;4833005;29;20054;-75
2024/01/18 02:27:17;;;;;;;3.90;1.20;;;;;;;;;;4818164;29;20049;-75
2024/01/18 02:29:48;;;;;;;2.30;0.77;;;;;;;;;;4834392;29;20054;-75
2024/01/18 02:32:18;;;;;;;3.45;0.98;;;;;;;;;;4833648;29;20477;-75
2024/01/18 02:34:49;;;;;;;2.78;0.90;;;;;;;;;;4834247;29;20113;-76
2024/01/18 02:37:20;;;;;;;4.20;1.10;;;;;;;;;;4833882;29;20042;-75
2024/01/18 02:39:52;;;;;;;9.75;1.55;;;;;;;;;;4832019;29;20054;-77
2024/01/18 02:42:22;;;;;;;3.65;0.73;;;;;;;;;;4833438;29;20065;-75
2024/01/18 02:44:55;;;;;;;3.45;0.90;;;;;;;;;;4833347;29;20493;-75
2024/01/18 02:47:27;;;;;;;3.30;0.70;;;;;;;;;;4833946;29;20505;-76
2024/01/18 02:49:57;;;;;;;3.55;0.82;;;;;;;;;;4834196;29;20529;-75
2024/01/18 02:52:28;;;;;;;2.78;0.90;;;;;;;;;;4834139;29;20050;-75
2024/01/18 02:54:59;;;;;;;4.63;1.05;;;;;;;;;;4833169;29;20053;-75
2024/01/18 02:57:30;;;;;;;2.65;0.80;;;;;;;;;;4816296;29;20058;-76
2024/01/18 03:00:01;;;;;;;4.70;0.93;;;;;;;;;;4833261;29;20054;-75
2024/01/18 03:02:31;;;;;;;4.70;0.98;;;;;;;;;;4832855;29;20069;-75
2024/01/18 03:05:01;;;;;;;2.22;0.75;;;;;;;;;;4816119;29;20132;-76
2024/01/18 03:07:33;;;;;;;1.42;0.70;;;;;;;;;;4833022;29;20061;-75
2024/01/18 03:10:06;;;;;;;2.65;0.45;;;;;;;;;;4833664;29;20054;-74
2024/01/18 03:12:37;;;;;;;2.97;0.50;;;;;;;;;;4833076;29;20059;-75
2024/01/18 03:15:10;;;;;;;2.97;0.50;;;;;;;;;;4817013;29;20050;-73
2024/01/18 03:17:41;;;;;;;1.42;0.50;;;;;;;;;;4832519;29;20521;-76
2024/01/18 03:20:12;;;;;;;3.47;0.40;;;;;;;;;;4833789;29;20053;-76
2024/01/18 03:22:44;;;;;;;1.95;0.52;;;;;;;;;;4833412;29;20054;-74
2024/01/18 03:25:14;;;;;;;2.38;0.63;;;;;;;;;;4834363;29;20448;-75
2024/01/18 03:27:45;;;;;;;1.13;0.50;;;;;;;;;;4832893;29;20077;-75
2024/01/18 03:30:16;;;;;;;7.60;0.77;;;;;;;;;;4832440;29;20053;-75
2024/01/18 03:32:47;;;;;;;1.33;0.43;;;;;;;;;;4832576;29;20061;-77
2024/01/18 03:35:17;;;;;;;1.85;0.60;;;;;;;;;;4832552;29;20057;-74
2024/01/18 03:37:53;;;;;;;3.15;0.60;;;;;;;;;;4832726;29;20073;-76
2024/01/18 03:40:24;;;;;;;3.20;0.60;;;;;;;;;;4832313;29;20433;-75
2024/01/18 03:42:55;;;;;;;0.43;0.43;;;;;;;;;;4832909;29;20053;-75
2024/01/18 03:45:25;;;;;;;1.13;0.45;;;;;;;;;;4832378;29;20502;-75
2024/01/18 03:47:56;;;;;;;1.05;0.40;;;;;;;;;;4832096;29;20057;-75
2024/01/18 03:50:26;;;;;;;2.30;0.65;;;;;;;;;;4832346;29;20065;-75
2024/01/18 03:52:58;;;;;;;1.60;0.63;;;;;;;;;;4833148;29;20058;-75
2024/01/18 03:55:28;;;;;;;3.17;0.32;;;;;;;;;;4832275;29;20513;-75
2024/01/18 03:58:03;;;;;;;0.32;0.32;;;;;;;;;;4832862;29;20042;-75
2024/01/18 04:00:38;;;;;;;2.45;0.40;;;;;;;;;;4832193;29;20058;-76
2024/01/18 04:03:08;;;;;;;0.70;0.47;;;;;;;;;;4832250;29;20054;-74
2024/01/18 04:05:39;;;;;;;0.85;0.40;;;;;;;;;;4832583;29;20061;-74
2024/01/18 04:08:10;;;;;;;1.30;0.55;;;;;;;;;;4832752;29;20520;-76
2024/01/18 04:10:42;;;;;;;1.20;0.50;;;;;;;;;;4832474;29;20541;-76
2024/01/18 04:13:12;;;;;;;1.23;0.40;;;;;;;;;;4832548;29;20053;-76
2024/01/18 04:15:46;;;;;;;2.00;0.45;;;;;;;;;;4832402;29;20060;-75
2024/01/18 04:18:16;;;;;;;3.30;0.40;;;;;;;;;;4831752;29;20052;-75
2024/01/18 04:20:52;;;;;;;1.98;0.30;;;;;;;;;;4832235;29;20529;-75
2024/01/18 04:23:23;;;;;;;0.77;0.30;;;;;;;;;;4832338;29;20081;-76
2024/01/18 04:25:54;;;;;;;2.38;0.45;;;;;;;;;;4831680;29;20053;-74
2024/01/18 04:28:25;;;;;;;4.03;0.57;;;;;;;;;;4831789;29;20445;-74
2024/01/18 04:30:55;;;;;;;0.57;0.40;;;;;;;;;;4831026;29;20062;-74
2024/01/18 04:33:25;;;;;;;0.93;0.35;;;;;;;;;;4831806;29;20061;-75
2024/01/18 04:35:56;;;;;;;0.40;0.40;;;;;;;;;;4831904;29;20056;-75
2024/01/18 04:38:26;;;;;;;1.55;0.40;;;;;;;;;;4815613;29;20053;-75
2024/01/18 04:40:57;;;;;;;0.65;0.20;;;;;;;;;;4832877;29;20577;-74
2024/01/18 04:43:28;;;;;;;1.27;0.40;;;;;;;;;;4832104;29;20054;-75
2024/01/18 04:45:59;;;;;;;1.55;0.52;;;;;;;;;;4831999;29;20403;-75
2024/01/18 04:48:29;;;;;;;1.45;0.40;;;;;;;;;;4831768;29;20053;-75
2024/01/18 04:51:00;;;;;;;2.47;0.35;;;;;;;;;;4831676;29;20433;-74
2024/01/18 04:53:31;;;;;;;1.55;0.30;;;;;;;;;;4831439;29;20054;-73
2024/01/18 04:56:02;;;;;;;2.70;0.40;;;;;;;;;;4831661;29;20053;-74
2024/01/18 04:58:32;;;;;;;0.40;0.30;;;;;;;;;;4831961;29;20054;-74
2024/01/18 05:01:02;;;;;;;0.55;0.20;;;;;;;;;;4831828;29;20054;-74
2024/01/18 05:03:34;;;;;;;0.30;0.30;;;;;;;;;;4831614;29;20050;-75
2024/01/18 05:06:08;;;;;;;1.30;0.40;;;;;;;;;;4830999;29;20418;-75
2024/01/18 05:08:39;;;;;;;0.43;0.25;;;;;;;;;;4831977;29;20501;-74
2024/01/18 05:11:09;;;;;;;2.28;0.30;;;;;;;;;;4830233;29;20058;-76
2024/01/18 05:13:40;;;;;;;1.75;0.30;;;;;;;;;;4832274;29;21006;-75
2024/01/18 05:16:10;;;;;;;0.93;0.30;;;;;;;;;;4832168;29;20852;-75
2024/01/18 05:18:41;;;;;;;1.30;0.43;;;;;;;;;;4831055;29;20077;-74
2024/01/18 05:21:12;;;;;;;1.17;0.25;;;;;;;;;;4831953;29;20046;-75
2024/01/18 05:23:42;;;;;;;2.83;0.20;;;;;;;;;;4818127;29;20053;-74
2024/01/18 05:26:12;;;;;;;1.08;0.43;;;;;;;;;;4834709;29;20050;-74
2024/01/18 05:28:44;;;;;;;0.50;0.50;;;;;;;;;;4834906;29;20072;-74
2024/01/18 05:31:15;;;;;;;0.20;0.20;;;;;;;;;;4834538;29;20807;-74
2024/01/18 05:33:44;;;;;;;1.02;0.43;;;;;;;;;;4835001;29;20052;-75
2024/01/18 05:36:15;;;;;;;1.70;0.30;;;;;;;;;;4834413;29;20417;-74
2024/01/18 05:38:45;;;;;;;1.95;0.22;;;;;;;;;;4833236;29;20054;-76
2024/01/18 05:41:16;;;;;;;1.42;0.38;;;;;;;;;;4834736;29;20208;-74
2024/01/18 05:43:46;;;;;;;1.77;0.20;;;;;;;;;;4834469;29;20050;-74
2024/01/18 05:46:17;;;;;;;0.50;0.30;;;;;;;;;;4835302;29;20069;-75
2024/01/18 05:48:51;;;;;;;0.20;0.20;;;;;;;;;;4833515;29;20054;-75
2024/01/18 05:51:23;;;;;;;0.30;0.30;;;;;;;;;;4835231;29;20506;-74
2024/01/18 05:53:53;;;;;;;3.83;0.30;;;;;;;;;;4834705;29;20053;-74
2024/01/18 05:56:23;;;;;;;0.22;0.22;;;;;;;;;;4834446;29;20054;-73
2024/01/18 05:58:54;;;;;;;2.13;0.40;;;;;;;;;;4834529;29;20058;-75
2024/01/18 06:01:25;;;;;;;1.00;0.20;;;;;;;;;;4834073;29;20049;-73
2024/01/18 06:03:58;;;;;;;0.20;0.20;;;;;;;;;;4834358;29;20050;-74
2024/01/18 06:06:31;;;;;;;0.63;0.30;;;;;;;;;;4834414;29;20045;-74
2024/01/18 06:09:01;;;;;;;0.43;0.20;;;;;;;;;;4834207;29;20064;-74
2024/01/18 06:11:31;;;;;;;0.52;0.22;;;;;;;;;;4834240;29;20528;-74
2024/01/18 06:14:01;;;;;;;1.50;0.55;;;;;;;;;;4834107;29;20046;-75
2024/01/18 06:16:32;;;;;;;0.60;0.40;;;;;;;;;;4818036;29;20061;-73
2024/01/18 06:19:02;;;;;;;0.13;0.13;;;;;;;;;;4833763;29;20049;-74
2024/01/18 06:21:33;;;;;;;0.28;0.28;;;;;;;;;;4834134;29;20054;-75
2024/01/18 06:24:08;;;;;;;0.75;0.30;;;;;;;;;;4834174;29;20050;-74
2024/01/18 06:26:38;;;;;;;2.28;0.25;;;;;;;;;;4832616;29;20060;-75
2024/01/18 06:29:11;;;;;;;0.38;0.20;;;;;;;;;;4834079;29;20062;-74
2024/01/18 06:31:42;;;;;;;0.60;0.20;;;;;;;;;;4834545;29;20524;-74
2024/01/18 06:34:12;;;;;;;0.98;0.22;;;;;;;;;;4833623;29;20049;-74
2024/01/18 06:36:42;;;;;;;0.88;0.45;;;;;;;;;;4833639;29;20066;-74
2024/01/18 06:39:15;;;;;;;1.38;0.32;;;;;;;;;;4833825;29;20757;-74
2024/01/18 06:41:47;;;;;;;0.60;0.32;;;;;;;;;;4833382;29;20062;-74
2024/01/18 06:44:17;;;;;;;0.38;0.20;;;;;;;;;;4833381;29;20065;-74
2024/01/18 06:46:47;;;;;;;1.65;0.55;;;;;;;;;;4833615;29;20220;-74
2024/01/18 06:49:17;;;;;;;0.20;0.20;;;;;;;;;;4833278;29;20058;-74
2024/01/18 06:51:47;;;;;;;0.77;0.30;;;;;;;;;;4833459;29;20427;-73
2024/01/18 06:54:21;;;;;;;3.40;0.40;;;;;;;;;;4817679;29;20060;-74
2024/01/18 06:56:51;;;;;;;2.10;0.47;;;;;;;;;;4833319;29;20514;-73
2024/01/18 06:59:21;;;;;;;2.70;0.30;;;;;;;;;;4833405;29;20560;-74
2024/01/18 07:01:52;;;;;;;2.63;0.40;;;;;;;;;;4833279;29;20528;-73
2024/01/18 07:04:24;;;;;;;0.57;0.30;;;;;;;;;;4834002;29;20054;-73
2024/01/18 07:06:54;;;;;;;0.38;0.38;;;;;;;;;;4834044;29;20041;-73
2024/01/18 07:09:25;;;;;;;0.68;0.45;;;;;;;;;;4831786;29;20042;-73
2024/01/18 07:11:56;;;;;;;1.42;0.32;;;;;;;;;;4833684;29;20052;-74
2024/01/18 07:14:26;;;;;;;0.98;0.45;;;;;;;;;;4833697;29;20050;-74
2024/01/18 07:17:03;;;;;;;2.85;0.80;;;;;;;;;;4832871;29;20071;-73
2024/01/18 07:19:33;;;;;;;1.63;0.50;;;;;;;;;;4816137;29;20058;-73
2024/01/18 07:22:06;;;;;;;2.42;0.60;;;;;;;;;;4832848;29;20053;-73
2024/01/18 07:24:36;;;;;;;1.73;0.60;;;;;;;;;;4833145;29;20056;-73
2024/01/18 07:27:09;;;;;;;1.38;0.50;;;;;;;;;;4833158;29;20061;-73
2024/01/18 07:29:40;;;;;;;0.80;0.52;;;;;;;;;;4832935;29;20057;-74
2024/01/18 07:32:10;;;;;;;6.00;0.60;;;;;;;;;;4832969;29;20414;-73
2024/01/18 07:34:41;;;;;;;3.08;0.75;;;;;;;;;;4832859;29;20053;-73
2024/01/18 07:37:13;;;;;;;4.13;0.70;;;;;;;;;;4832307;29;20521;-73
2024/01/18 07:39:44;;;;;;;5.18;0.60;;;;;;;;;;4832757;29;20418;-73
2024/01/18 07:42:14;;;;;;;2.03;0.70;;;;;;;;;;4833002;29;20062;-73
2024/01/18 07:44:47;;;;;;;2.10;0.60;;;;;;;;;;4833019;29;20056;-73
2024/01/18 07:47:20;;;;;;;2.63;0.63;;;;;;;;;;4833684;29;20065;-73
2024/01/18 07:49:50;;;;;;;8.15;0.95;;;;;;;;;;4832469;29;20050;-73
2024/01/18 07:52:21;;;;;;;2.28;0.90;;;;;;;;;;4832270;29;20053;-73
2024/01/18 07:54:52;;;;;;;3.58;0.73;;;;;;;;;;4831858;29;20049;-73
2024/01/18 07:57:24;;;;;;;2.80;0.90;;;;;;;;;;4831913;29;20085;-73
2024/01/18 07:59:56;;;;;;;2.75;0.65;;;;;;;;;;4830807;29;20076;-73
2024/01/18 08:02:26;;;;;;;3.88;0.80;;;;;;;;;;4832555;29;20049;-72
2024/01/18 08:04:57;;;;;;;1.85;0.60;;;;;;;;;;4830710;29;21153;-73
2024/01/18 08:07:28;;;;;;;2.47;0.52;;;;;;;;;;4831791;29;20054;-73
2024/01/18 08:09:59;;;;;;;1.08;0.47;;;;;;;;;;4832165;29;20058;-74
2024/01/18 08:12:29;;;;;;;1.40;0.70;;;;;;;;;;4832412;29;20669;-74
2024/01/18 08:15:00;;;;;;;3.10;0.65;;;;;;;;;;4832868;29;20057;-74
2024/01/18 08:17:31;;;;;;;2.75;0.60;;;;;;;;;;4832483;29;20502;-73
2024/01/18 08:20:01;;;;;;;0.90;0.60;;;;;;;;;;4832956;29;20054;-73
2024/01/18 08:22:31;;;;;;;3.97;0.80;;;;;;;;;;4831914;29;20065;-73
2024/01/18 08:25:02;;;;;;;4.53;0.80;;;;;;;;;;4832073;29;20057;-75
2024/01/18 08:27:34;;;;;;;2.13;0.63;;;;;;;;;;4832272;29;20057;-73
2024/01/18 08:30:05;;;;;;;2.67;0.70;;;;;;;;;;4832086;29;20049;-73
2024/01/18 08:32:36;;;;;;;3.90;0.70;;;;;;;;;;4832376;29;20057;-73
2024/01/18 08:35:07;;;;;;;4.13;0.73;;;;;;;;;;4831642;29;20612;-75
2024/01/18 08:37:40;;;;;;;2.20;0.95;;;;;;;;;;4832103;29;20050;-73
2024/01/18 08:40:12;;;;;;;2.05;0.60;;;;;;;;;;4832290;29;20046;-75
2024/01/18 08:42:45;;;;;;;3.03;0.85;;;;;;;;;;4831280;29;20057;-75
2024/01/18 08:45:16;;;;;;;4.32;0.90;;;;;;;;;;4832124;29;20054;-76
2024/01/18 08:47:47;;;;;;;3.88;0.60;;;;;;;;;;4832095;29;20049;-75
2024/01/18 08:50:20;;;;;;;4.20;0.90;;;;;;;;;;4832158;29;20064;-74
2024/01/18 08:52:51;;;;;;;1.48;0.60;;;;;;;;;;4832006;29;20517;-74
2024/01/18 08:55:23;;;;;;;2.15;0.80;;;;;;;;;;4831430;29;20053;-74
2024/01/18 08:57:55;;;;;;;4.07;0.68;;;;;;;;;;4835105;29;20068;-74
2024/01/18 09:00:27;;;;;;;3.92;0.75;;;;;;;;;;4835544;29;20421;-75
2024/01/18 09:02:58;;;;;;;1.55;0.68;;;;;;;;;;4836111;29;20058;-75
2024/01/18 09:05:30;;;;;;;2.35;0.60;;;;;;;;;;4836438;29;20058;-74
2024/01/18 09:08:01;;;;;;;1.85;0.70;;;;;;;;;;4835345;29;20509;-75
2024/01/18 09:10:35;;;;;;;1.27;0.47;;;;;;;;;;4835934;29;20076;-75
2024/01/18 09:13:06;;;;;;;3.28;0.70;;;;;;;;;;4835565;29;20046;-76
2024/01/18 09:15:36;;;;;;;6.32;0.60;;;;;;;;;;4833507;29;20058;-75
2024/01/18 09:18:07;;;;;;;3.80;0.68;;;;;;;;;;4834532;29;20057;-75
2024/01/18 09:20:38;;;;;;;2.50;0.45;;;;;;;;;;4818370;29;20543;-75
2024/01/18 09:23:08;;;;;;;5.50;0.80;;;;;;;;;;4834971;29;20053;-76
2024/01/18 09:25:44;;;;;;;7.32;0.82;;;;;;;;;;4835558;29;20510;-76
2024/01/18 09:28:15;;;;;;;5.20;0.80;;;;;;;;;;4835457;29;20065;-75
2024/01/18 09:30:46;;;;;;;3.33;0.93;;;;;;;;;;4834759;29;20061;-75
2024/01/18 09:33:16;;;;;;;6.28;0.90;;;;;;;;;;4834898;29;20056;-79
2024/01/18 09:35:47;;;;;;;4.38;0.85;;;;;;;;;;4834873;29;20054;-75
2024/01/18 09:38:19;;;;;;;2.90;0.65;;;;;;;;;;4818227;29;20053;-75
2024/01/18 09:40:53;;;;;;;3.22;0.80;;;;;;;;;;4834739;29;20073;-76
2024/01/18 09:43:23;;;;;;;4.60;0.90;;;;;;;;;;4835281;29;20540;-76
2024/01/18 09:45:55;;;;;;;3.17;0.88;;;;;;;;;;4834422;29;20046;-76
2024/01/18 09:48:26;;;;;;;5.03;0.80;;;;;;;;;;4834766;29;20053;-74
2024/01/18 09:50:58;;;;;;;11.55;1.42;;;;;;;;;;4834589;29;20057;-82
2024/01/18 09:53:29;;;;;;;2.40;0.70;;;;;;;;;;4834169;29;20054;-76
2024/01/18 09:56:17;;;;;;;4.07;0.93;;;;;;;;;;4834152;29;20053;-76
2024/01/18 09:58:48;;;;;;;8.45;1.05;;;;;;;;;;4834033;29;20053;-76
2024/01/18 10:01:26;;;;;;;5.80;1.15;;;;;;;;;;4833129;29;20108;-76
2024/01/18 10:03:57;;;;;;;3.83;0.60;;;;;;;;;;4834091;29;20054;-77
2024/01/18 10:06:27;;;;;;;7.95;1.52;;;;;;;;;;4834355;29;20058;-76
2024/01/18 10:08:58;;;;;;;3.33;1.02;;;;;;;;;;4833727;29;20528;-75
2024/01/18 10:11:28;;;;;;;4.85;0.77;;;;;;;;;;4834650;29;20525;-76
2024/01/18 10:14:02;;;;;;;4.03;1.15;;;;;;;;;;4835031;29;20050;-76
2024/01/18 10:16:37;;;;;;;3.60;0.80;;;;;;;;;;4833107;29;20062;-77
2024/01/18 10:19:15;;;;;;;4.47;0.60;;;;;;;;;;4817565;29;20061;-74
2024/01/18 10:21:49;;;;;;;6.32;0.80;;;;;;;;;;4814947;29;20421;-77
2024/01/18 10:24:20;;;;;;;;;;;;;;;;;;4831986;29;20068;-76
2024/01/18 10:27:05;;;;;;;4.60;1.00;;;;;;;;;;4831417;29;19929;-77
2024/01/18 10:29:36;;;;;;;6.53;1.23;;;;;;;;;;4831334;29;20054;-78
2024/01/18 10:32:08;;;;;;;1.80;0.80;;;;;;;;;;4831430;29;20056;-76
2024/01/18 10:34:38;;;;;;;4.47;0.68;;;;;;;;;;4831327;29;20086;-76
2024/01/18 10:37:16;;;;;;;2.42;0.60;;;;;;;;;;4829682;29;21329;-74
2024/01/18 10:39:48;;;;;;;6.70;1.35;;;;;;;;;;4830862;29;20053;-75
2024/01/18 10:42:19;;;;;;;5.63;0.70;;;;;;;;;;4830369;29;20867;-76
2024/01/18 10:44:51;;;;;;;36.38;2.25;;;;;;;;;;4831378;29;20085;-77
2024/01/18 10:47:26;;;;;;;10.35;1.30;;;;;;;;;;4831097;29;20888;-75
2024/01/18 10:49:59;;;;;;;3.58;0.55;;;;;;;;;;4815494;29;20504;-75
2024/01/18 10:52:31;;;;;;;3.47;0.70;;;;;;;;;;4831189;29;20514;-77
2024/01/18 10:55:07;;;;;;;4.63;0.50;;;;;;;;;;4830719;29;20156;-76
2024/01/18 10:57:37;;;;;;;0.60;0.30;;;;;;;;;;4830935;29;20057;-75
2024/01/18 11:00:08;;;;;;;1.85;0.60;;;;;;;;;;4830435;29;20057;-76
2024/01/18 11:02:41;;;;;;;3.90;0.73;;;;;;;;;;4829092;29;20057;-77
2024/01/18 11:05:20;;;;;;;0.80;0.60;;;;;;;;;;4830882;29;20045;-76
2024/01/18 11:07:52;;;;;;;6.60;1.00;;;;;;;;;;4830437;29;20042;-76
2024/01/18 11:10:23;;;;;;;19.80;1.05;;;;;;;;;;4831091;29;20062;-77
2024/01/18 11:12:54;;;;;;;9.57;1.10;;;;;;;;;;4830751;29;20506;-75
2024/01/18 11:15:25;;;;;;;2.90;0.65;;;;;;;;;;4830804;29;20057;-76
2024/01/18 11:17:56;;;;;;;1.42;0.57;;;;;;;;;;4830740;29;20060;-77
2024/01/18 11:20:27;;;;;;;5.28;0.88;;;;;;;;;;4829327;29;20062;-76
2024/01/18 11:23:00;;;;;;;1.33;0.73;;;;;;;;;;4829051;29;20545;-77
2024/01/18 11:25:33;;;;;;;3.20;0.60;;;;;;;;;;4830583;29;20422;-75
2024/01/18 11:28:03;;;;;;;6.50;0.80;;;;;;;;;;4830357;29;20751;-76
2024/01/18 11:30:40;;;;;;;3.78;0.70;;;;;;;;;;4829316;29;20058;-75
2024/01/18 11:33:13;;;;;;;7.55;1.45;;;;;;;;;;4833095;29;20061;-76
2024/01/18 11:35:44;;;;;;;5.38;0.70;;;;;;;;;;4831439;29;20081;-76
2024/01/18 11:38:25;;;;;;;3.42;0.60;;;;;;;;;;4832658;29;20054;-79
2024/01/18 11:41:11;;;;;;;4.28;0.90;;;;;;;;;;4832595;29;20421;-76
2024/01/18 11:43:57;;;;;;;4.90;0.77;;;;;;;;;;4832474;29;20064;-76
2024/01/18 11:46:41;;;;;;;4.25;0.70;;;;;;;;;;4831283;29;20042;-76
2024/01/18 11:49:12;;;;;;;3.72;0.90;;;;;;;;;;4832580;29;20410;-76
2024/01/18 11:51:44;;;;;;;3.88;0.70;;;;;;;;;;4833292;29;20054;-75
2024/01/18 11:54:20;;;;;;;1.90;0.75;;;;;;;;;;4832292;29;20053;-78
2024/01/18 11:56:53;;;;;;;1.65;0.60;;;;;;;;;;4832273;29;20054;-75
2024/01/18 11:59:23;;;;;;;3.90;0.75;;;;;;;;;;4832630;29;20054;-75
2024/01/18 12:01:56;;;;;;;1.67;0.70;;;;;;;;;;4815714;29;20066;-76
2024/01/18 12:04:26;;;;;;;2.80;0.68;;;;;;;;;;4832990;29;20049;-76
2024/01/18 12:06:56;;;;;;;1.30;0.60;;;;;;;;;;4832551;29;20099;-76
2024/01/18 12:09:30;;;;;;;0.50;0.50;;;;;;;;;;4832272;29;20057;-76
2024/01/18 12:12:02;;;;;;;0.95;0.60;;;;;;;;;;4831985;29;20050;-76
2024/01/18 12:14:43;;;;;;;1.27;0.65;;;;;;;;;;4832704;29;20076;-76
2024/01/18 12:17:15;;;;;;;0.77;0.60;;;;;;;;;;4832106;29;20058;-76
2024/01/18 12:19:47;;;;;;;2.92;0.70;;;;;;;;;;4832038;29;20552;-76
2024/01/18 12:22:20;;;;;;;2.03;0.60;;;;;;;;;;4832091;29;20050;-76
2024/01/18 12:24:51;;;;;;;4.97;1.10;;;;;;;;;;4832190;29;20540;-77
2024/01/18 12:27:23;;;;;;;3.22;0.80;;;;;;;;;;4831866;29;20054;-76
2024/01/18 12:29:53;;;;;;;3.90;0.70;;;;;;;;;;4832105;29;20070;-77
2024/01/18 12:32:24;;;;;;;2.88;0.90;;;;;;;;;;4831286;29;21110;-76
2024/01/18 12:34:59;;;;;;;1.58;0.70;;;;;;;;;;4831816;29;20058;-75
2024/01/18 12:37:30;;;;;;;1.08;0.73;;;;;;;;;;4832268;29;20421;-75
2024/01/18 12:40:00;;;;;;;2.80;1.08;;;;;;;;;;4831913;29;20074;-76
2024/01/18 12:42:33;;;;;;;1.33;1.15;;;;;;;;;;4832451;29;20069;-76
2024/01/18 12:45:04;;;;;;;5.00;1.00;;;;;;;;;;4832082;29;20820;-76
2024/01/18 12:47:36;;;;;;;6.32;1.25;;;;;;;;;;4831760;29;20112;-75
2024/01/18 12:50:09;;;;;;;3.17;1.00;;;;;;;;;;4832176;29;20053;-75
2024/01/18 12:52:44;;;;;;;1.27;0.80;;;;;;;;;;4831454;29;20058;-77
2024/01/18 12:55:15;;;;;;;1.08;0.80;;;;;;;;;;4831736;29;20058;-77
2024/01/18 12:57:46;;;;;;;1.67;0.82;;;;;;;;;;4831789;29;20057;-75
2024/01/18 13:00:17;;;;;;;2.65;0.80;;;;;;;;;;4832652;29;20058;-77
2024/01/18 13:02:48;;;;;;;2.83;0.95;;;;;;;;;;4831529;29;20057;-76
2024/01/18 13:05:20;;;;;;;2.42;0.90;;;;;;;;;;4831469;29;20054;-76
2024/01/18 13:07:50;;;;;;;8.88;1.55;;;;;;;;;;4831546;29;20050;-76
2024/01/18 13:10:21;;;;;;;2.72;1.25;;;;;;;;;;4831734;29;20060;-76
2024/01/18 13:12:52;;;;;;;3.08;1.00;;;;;;;;;;4832561;29;20046;-76
2024/01/18 13:15:24;;;;;;;2.17;1.10;;;;;;;;;;4831621;29;20054;-76
2024/01/18 13:17:56;;;;;;;5.38;1.05;;;;;;;;;;4831646;29;20050;-77
2024/01/18 13:20:26;;;;;;;4.60;1.00;;;;;;;;;;4843114;29;20049;-77
2024/01/18 13:22:56;;;;;;;3.03;1.00;;;;;;;;;;4849791;29;20056;-79
2024/01/18 13:25:27;;;;;;;3.00;1.10;;;;;;;;;;4849678;29;20060;-77
2024/01/18 13:27:59;;;;;;;3.45;1.10;;;;;;;;;;4849988;29;20779;-76
2024/01/18 13:30:30;;;;;;;3.10;1.27;;;;;;;;;;4850350;29;20049;-75
2024/01/18 13:33:01;;;;;;;4.50;1.15;;;;;;;;;;4849663;29;20049;-80
2024/01/18 13:35:37;;;;;;;1.15;0.93;;;;;;;;;;4849576;29;20775;-76
2024/01/18 13:38:07;;;;;;;6.90;1.13;;;;;;;;;;4849362;29;20061;-79
2024/01/18 13:40:42;;;;;;;5.30;1.15;;;;;;;;;;4849879;29;20060;-76
2024/01/18 13:43:12;;;;;;;2.63;1.00;;;;;;;;;;4831186;29;20385;-77
2024/01/18 13:45:41;;;;;;;4.88;1.35;;;;;;;;;;4834839;29;20413;-76
2024/01/18 13:48:12;;;;;;;2.25;0.90;;;;;;;;;;4835325;29;20545;-75
2024/01/18 13:50:43;;;;;;;1.58;0.80;;;;;;;;;;4833075;29;20453;-76
2024/01/18 13:53:18;;;;;;;4.93;0.90;;;;;;;;;;4834791;29;20069;-76
2024/01/18 13:55:49;;;;;;;2.85;0.93;;;;;;;;;;4834237;29;20064;-77
2024/01/18 13:58:19;;;;;;;7.72;2.53;;;;;;;;;;4834383;29;20049;-78
2024/01/18 14:00:51;;;;;;;6.25;1.13;;;;;;;;;;4834063;29;20065;-77
2024/01/18 14:03:23;;;;;;;1.77;1.00;;;;;;;;;;4834612;29;20061;-76
2024/01/18 14:05:54;;;;;;;2.25;0.95;;;;;;;;;;4833814;29;20050;-77
2024/01/18 14:08:24;;;;;;;1.98;0.73;;;;;;;;;;4834505;29;20058;-78
2024/01/18 14:10:55;;;;;;;1.27;0.80;;;;;;;;;;4834667;29;20863;-76
2024/01/18 14:13:27;;;;;;;1.77;0.60;;;;;;;;;;4833455;29;20062;-74
2024/01/18 14:15:57;;;;;;;1.05;0.75;;;;;;;;;;4834564;29;20141;-75
2024/01/18 14:18:28;;;;;;;2.65;0.90;;;;;;;;;;4835007;29;20057;-76
2024/01/18 14:20:59;;;;;;;1.58;0.82;;;;;;;;;;4834741;29;20054;-76
2024/01/18 14:23:30;;;;;;;1.13;0.70;;;;;;;;;;4834435;29;20056;-75
2024/01/18 14:26:03;;;;;;;2.05;0.90;;;;;;;;;;4834729;29;20046;-76
2024/01/18 14:28:34;;;;;;;0.75;0.75;;;;;;;;;;4833872;29;20524;-76
2024/01/18 14:31:05;;;;;;;4.45;0.80;;;;;;;;;;4834240;29;20053;-76
2024/01/18 14:33:36;;;;;;;1.30;0.70;;;;;;;;;;4832912;29;20054;-76
2024/01/18 14:36:07;;;;;;;3.67;0.80;;;;;;;;;;4832721;29;20058;-75
2024/01/18 14:38:37;;;;;;;2.00;0.80;;;;;;;;;;4833691;29;20057;-75
2024/01/18 14:41:08;;;;;;;1.85;0.75;;;;;;;;;;4833499;29;20064;-75
2024/01/18 14:43:39;;;;;;;2.22;1.00;;;;;;;;;;4833592;29;20061;-74
2024/01/18 14:46:09;;;;;;;5.45;1.05;;;;;;;;;;4834406;29;20057;-74
2024/01/18 14:48:39;;;;;;;1.95;1.17;;;;;;;;;;4833886;29;20058;-74
2024/01/18 14:51:10;;;;;;;5.53;1.40;;;;;;;;;;4833754;29;20777;-74
2024/01/18 14:53:42;;;;;;;7.90;3.30;;;;;;;;;;4833160;29;20053;-75
2024/01/18 14:56:13;;;;;;;2.55;1.40;;;;;;;;;;4833599;29;20050;-74
2024/01/18 14:58:44;;;;;;;3.30;1.15;;;;;;;;;;4833045;29;20054;-75
2024/01/18 15:01:16;;;;;;;4.72;2.60;;;;;;;;;;4833590;29;20516;-73
2024/01/18 15:03:47;;;;;;;2.38;1.77;;;;;;;;;;4833780;29;20549;-75
2024/01/18 15:06:17;;;;;;;4.25;2.95;;;;;;;;;;4833612;29;20054;-76
2024/01/18 15:08:48;;;;;;;3.85;1.50;;;;;;;;;;4833635;29;20057;-75